Latest Coastal Weather Observations for Yarram Airport

IDV60701

Issued at 5:02 pm EST Monday 26 September 2016 (issued every 10 minutes, with the page automatically refreshed every 10 minutes)

About coastal observations | Map of coastal stations | Coastal observations for VIC | Marine services | Other Formats
Station Details ID: 085151 Name: YARRAM AIRPORT Lat: -38.56 Lon: 146.75 Height: 17.9 m
Data from the previous 72 hours. | See also: Recent months at Yarram Airport
Date/Time
EST
Temp
°C
Wind Pressure Rain since
9am
mm
Weather Cloud Vis
km
Sea
Height
m
Swell
Dir  Spd
kts
Gust
kts
hPa Trend Height
m
Period
s
Dir
26/05:00pm 12.9 ENE 8 12 1009.8 - 0.4 - - - - - - -
26/04:30pm 13.5 E 7 9 1009.7 - 0.4 - - - - - - -
26/04:00pm 13.8 E 8 11 1009.5 - 0.4 - - - - - - -
26/03:30pm 13.2 ESE 9 11 1009.7 - 0.4 - - - - - - -
26/03:00pm 13.6 SW 9 19 1009.9 - 0.4 - - - - - - -
26/02:57pm 13.4 NW 7 19 1009.8 - 0.4 - - - - - - -
26/02:30pm 14.5 NNE 3 5 1009.7 - 0.4 - - - - - - -
26/02:00pm 14.3 NNE 1 6 1009.8 - 0.4 - - - - - - -
26/01:30pm 14.9 NNE 4 7 1010.3 - 0.4 - - - - - - -
26/01:00pm 14.8 E 2 5 1010.7 - 0.4 - - - - - - -
26/12:30pm 13.8 ENE 4 7 1011.2 - 0.4 - - - - - - -
26/12:00pm 12.3 WNW 3 10 1011.9 - 0.4 Rain - - - - - -
26/11:30am 13.6 W 1 6 1011.8 - 0.0 - - - - - - -
26/11:00am 13.6 W 5 9 1012.0 - 0.0 - - - - - - -
26/10:30am 14.6 NW 5 9 1012.1 - 0.0 - - - - - - -
26/10:00am 13.5 WSW 4 7 1012.4 - 0.0 - - - - - - -
26/09:30am 13.3 SW 2 5 1012.7 - 0.0 - - - - - - -
26/09:00am 12.1 W 1 5 1012.8 - 0.2 - - - - - - -
26/08:30am 12.4 NNW 3 5 1012.8 - 0.2 - - - - - - -
26/08:00am 10.4 N 3 4 1012.9 - 0.2 - - - - - - -
26/07:30am 8.0 N 3 4 1013.0 - 0.2 - - - - - - -
26/07:00am 5.7 NNE 4 5 1013.0 - 0.2 - - - - - - -
26/06:30am 3.0 WNW 2 4 1013.2 - 0.2 - - - - - - -
26/06:00am 3.7 W 1 5 1013.2 - 0.2 - - - - - - -
26/05:30am 3.6 CALM 0 0 1013.0 - 0.2 - - - - - - -
26/05:00am 3.1 CALM 0 0 1012.8 - 0.2 - - - - - - -
26/04:30am 3.1 CALM 0 0 1012.7 - 0.2 - - - - - - -
26/04:00am 2.9 NNW 1 3 1012.8 - 0.2 - - - - - - -
26/03:30am 2.9 N 3 3 1012.7 - 0.2 - - - - - - -
26/03:00am 2.7 N 4 5 1012.7 - 0.2 - - - - - - -
26/02:30am 3.3 CALM 0 0 1012.9 - 0.2 - - - - - - -
26/02:00am 5.0 CALM 0 0 1013.0 - 0.2 - - - - - - -
26/01:30am 5.2 CALM 0 0 1013.2 - 0.2 - - - - - - -
26/01:00am 5.2 NNW 5 6 1013.3 - 0.2 - - - - - - -
26/12:30am 7.5 WNW 8 9 1013.6 - 0.2 - - - - - - -
26/12:00am 6.7 NW 7 8 1013.7 - 0.2 - - - - - - -
 
Date/Time
EST
Temp
°C
Wind Pressure Rain since
9am
mm
Weather Cloud Vis
km
Sea
Height
m
Swell
Dir  Spd
kts
Gust
kts
hPa Trend Height
m
Period
s
Dir
25/11:30pm 6.7 WNW 7 9 1013.7 - 0.2 - - - - - - -
25/11:00pm 6.8 NNW 5 6 1013.6 - 0.2 - - - - - - -
25/10:30pm 6.5 WNW 7 8 1013.6 - 0.2 - - - - - - -
25/10:00pm 7.1 WNW 8 9 1013.6 - 0.2 - - - - - - -
25/09:30pm 7.3 WNW 7 9 1013.6 - 0.2 - - - - - - -
25/09:00pm 6.9 NW 8 9 1013.5 - 0.2 - - - - - - -
25/08:30pm 6.1 NW 7 8 1013.0 - 0.2 - - - - - - -
25/08:00pm 7.0 WNW 6 8 1012.8 - 0.2 - - - - - - -
25/07:30pm 7.5 WNW 7 8 1012.5 - 0.2 - - - - - - -
25/07:00pm 8.5 WNW 8 10 1012.1 - 0.2 - - - - - - -
25/06:30pm 9.5 W 9 12 1011.6 - 0.2 - - - - - - -
25/06:00pm 10.5 WSW 11 15 1011.3 - 0.0 - - - - - - -
25/05:30pm 11.4 WSW 13 18 1010.9 - 0.0 - - - - - - -
25/05:00pm 12.0 WSW 13 17 1010.7 - 0.0 - - - - - - -
25/04:30pm 13.0 WSW 17 24 1010.3 - 0.0 - - - - - - -
25/04:00pm 13.2 WSW 18 24 1010.3 - 0.0 - - - - - - -
25/03:30pm 13.5 WSW 18 23 1010.1 - 0.0 - - - - - - -
25/03:00pm 14.2 WSW 21 27 1010.0 - 0.0 - - - - - - -
25/02:30pm 14.7 WSW 19 27 1009.9 - 0.0 - - - - - - -
25/02:00pm 14.6 W 16 24 1010.0 - 0.0 - - - - - - -
25/01:30pm 14.5 WSW 20 28 1009.9 - 0.0 - - - - - - -
25/01:00pm 13.7 WSW 18 26 1009.8 - 0.0 - - - - - - -
25/12:40pm 13.3 W 15 25 1009.8 - 0.0 - - - - - - -
25/12:30pm 13.3 WSW 18 23 1009.9 - 0.0 - - - - - - -
25/12:00pm 13.0 W 16 21 1009.7 - 0.0 - - - - - - -
25/11:56am 12.9 W 17 21 1009.7 - 0.0 - - - - - - -
25/11:30am 13.6 WSW 20 29 1009.6 - 0.0 - - - - - - -
25/11:29am 14.1 WSW 19 29 1009.6 - 0.0 - - - - - - -
25/11:26am 14.9 W 16 27 1009.5 - 0.0 - - - - - - -
25/11:00am 12.1 WNW 13 17 1009.5 - 0.0 - - - - - - -
25/10:40am 11.2 W 17 27 1009.3 - 0.0 - - - - - - -
25/10:30am 13.7 W 15 20 1009.1 - 0.0 - - - - - - -
25/10:00am 12.7 W 15 19 1009.1 - 0.0 - - - - - - -
25/09:30am 12.9 WSW 15 22 1009.0 - 0.0 - - - - - - -
25/09:00am 12.2 WSW 16 22 1008.7 - 0.2 - - - - - - -
25/08:30am 11.8 W 12 17 1008.5 - 0.2 - - - - - - -
25/08:00am 11.2 W 13 19 1008.1 - 0.2 - - - - - - -
25/07:30am 11.8 W 11 16 1007.8 - 0.2 - - - - - - -
25/07:00am 12.2 W 10 14 1007.2 - 0.2 - - - - - - -
25/06:30am 11.0 W 7 11 1007.0 - 0.2 - - - - - - -
25/06:00am 11.2 WSW 9 12 1006.8 - 0.2 - - - - - - -
25/05:30am 11.2 W 10 14 1006.5 - 0.2 - - - - - - -
25/05:00am 11.2 W 10 14 1006.3 - 0.2 - - - - - - -
25/04:30am 12.0 WSW 6 7 1005.6 - 0.0 - - - - - - -
25/04:00am 12.4 WNW 7 9 1005.2 - 0.0 - - - - - - -
25/03:30am 12.5 WNW 8 9 1005.2 - 0.0 - - - - - - -
25/03:00am 12.4 WNW 8 11 1005.2 - 0.0 - - - - - - -
25/02:30am 11.5 WNW 5 6 1005.4 - 0.0 - - - - - - -
25/02:00am 11.2 WNW 1 5 1005.6 - 0.0 - - - - - - -
25/01:30am 11.4 CALM 0 0 1005.8 - 0.0 - - - - - - -
25/01:00am 11.5 CALM 0 0 1005.7 - 0.0 - - - - - - -
25/12:30am 11.3 NNE 3 4 1005.9 - 0.0 - - - - - - -
25/12:00am 11.6 WSW 5 6 1005.9 - 0.0 - - - - - - -
 
Date/Time
EST
Temp
°C
Wind Pressure Rain since
9am
mm
Weather Cloud Vis
km
Sea
Height
m
Swell
Dir  Spd
kts
Gust
kts
hPa Trend Height
m
Period
s
Dir
24/11:30pm 11.6 WNW 4 5 1006.0 - 0.0 - - - - - - -
24/11:00pm 11.3 CALM 0 0 1006.0 - 0.0 - - - - - - -
24/10:30pm 11.1 CALM 0 0 1006.0 - 0.0 - - - - - - -
24/10:00pm 11.5 W 3 4 1006.2 - 0.0 - - - - - - -
24/09:30pm 11.3 CALM 0 0 1006.3 - 0.0 - - - - - - -
24/09:00pm 11.5 CALM 0 0 1006.3 - 0.0 - - - - - - -
24/08:30pm 11.8 CALM 0 0 1006.6 - 0.0 - - - - - - -
24/08:00pm 11.5 CALM 0 0 1006.5 - 0.0 - - - - - - -
24/07:30pm 12.5 CALM 0 0 1006.5 - 0.0 - - - - - - -
24/07:00pm 13.0 CALM 0 0 1006.5 - 0.0 - - - - - - -
24/06:30pm 13.3 CALM 0 0 1006.3 - 0.0 - - - - - - -
24/06:00pm 14.0 SE 1 5 1006.2 - 0.0 - - - - - - -
24/05:30pm 15.0 S 5 7 1006.2 - 0.0 - - - - - - -
24/05:00pm 16.3 S 4 6 1006.0 - 0.0 - - - - - - -
24/04:30pm 16.5 SE 6 8 1005.8 - 0.0 - - - - - - -
24/04:00pm 16.7 SE 5 8 1005.9 - 0.0 - - - - - - -
24/03:30pm 17.3 ESE 7 9 1005.7 - 0.0 - - - - - - -
24/03:00pm 17.3 SE 6 8 1005.9 - 0.0 - - - - - - -
24/02:30pm 17.2 SE 8 11 1005.6 - 0.0 - - - - - - -
24/02:00pm 17.3 ESE 10 12 1005.6 - 0.0 - - - - - - -
24/01:30pm 18.1 ESE 9 14 1006.1 - 0.0 - - - - - - -
24/01:00pm 18.1 SE 11 14 1006.5 - 0.0 - - - - - - -
24/12:30pm 17.8 SE 10 13 1007.2 - 0.0 - - - - - - -
24/12:00pm 17.3 SE 9 11 1007.6 - 0.0 - - - - - - -
24/11:30am 17.8 SSE 8 11 1008.0 - 0.0 - - - - - - -
24/11:00am 18.1 SSW 7 10 1008.4 - 0.0 - - - - - - -
24/10:30am 17.8 SW 5 8 1008.7 - 0.0 - - - - - - -
24/10:00am 17.1 CALM 0 3 1009.0 - 0.0 - - - - - - -
24/09:30am 15.4 SSW 1 4 1009.6 - 0.0 - - - - - - -
24/09:00am 14.3 SW 4 6 1010.0 - 0.0 - - - - - - -
24/08:30am 14.0 W 4 8 1010.1 - 0.0 - - - - - - -
24/08:00am 13.3 NE 5 7 1010.0 - 0.0 - - - - - - -
24/07:30am 11.9 ESE 2 5 1010.2 - 0.0 - - - - - - -
24/07:00am 10.0 NNW 3 5 1010.4 - 0.0 - - - - - - -
24/06:30am 9.3 ENE 3 5 1010.4 - 0.0 - - - - - - -
24/06:00am 9.3 ENE 3 4 1010.3 - 0.0 - - - - - - -
24/05:30am 9.6 ENE 4 6 1010.2 - 0.0 - - - - - - -
24/05:00am 8.8 ENE 5 6 1010.3 - 0.0 - - - - - - -
24/04:30am 7.5 NE 4 6 1010.6 - 0.0 - - - - - - -
24/04:00am 9.7 ENE 5 5 1010.6 - 0.0 - - - - - - -
24/03:30am 10.8 NE 3 5 1010.8 - 0.0 - - - - - - -
24/03:00am 10.2 N 3 4 1011.0 - 0.0 - - - - - - -
24/02:30am 11.1 NNE 3 4 1011.2 - 0.0 - - - - - - -
24/02:00am 11.6 NE 5 6 1011.6 - 0.0 - - - - - - -
24/01:30am 11.0 CALM 0 0 1011.8 - 0.0 - - - - - - -
24/01:00am 10.7 E 2 4 1012.1 - 0.0 - - - - - - -
24/12:30am 10.9 ENE 4 5 1012.2 - 0.0 - - - - - - -
24/12:00am 11.4 NE 3 5 1012.5 - 0.0 - - - - - - -
 
Date/Time
EST
Temp
°C
Wind Pressure Rain since
9am
mm
Weather Cloud Vis
km
Sea
Height
m
Swell
Dir  Spd
kts
Gust
kts
hPa Trend Height
m
Period
s
Dir
23/11:30pm 11.6 NNE 4 5 1012.7 - 0.0 - - - - - - -
23/11:00pm 11.5 NE 4 5 1012.8 - 0.0 - - - - - - -
23/10:30pm 11.2 NNE 4 6 1013.1 - 0.0 - - - - - - -
23/10:00pm 10.7 CALM 0 0 1013.3 - 0.0 - - - - - - -
23/09:30pm 10.4 CALM 0 0 1013.4 - 0.0 - - - - - - -
23/09:00pm 9.7 CALM 0 0 1013.5 - 0.0 - - - - - - -
23/08:30pm 8.3 N 1 3 1013.9 - 0.0 - - - - - - -
23/08:00pm 8.9 NE 3 4 1013.8 - 0.0 - - - - - - -
23/07:30pm 8.4 NE 3 5 1013.7 - 0.0 - - - - - - -
23/07:00pm 10.0 NE 4 5 1013.6 - 0.0 - - - - - - -
23/06:30pm 10.3 NE 4 6 1013.5 - 0.0 - - - - - - -
23/06:00pm 11.6 E 7 9 1013.2 - 0.0 - - - - - - -
23/05:30pm 12.6 E 8 11 1013.2 - 0.0 - - - - - - -

Other Formats:

Comma delimited format used in spreadsheet applications
http://www.bom.gov.au/fwo/IDV60701/IDV60701.95890.axf

JavaScript Object Notation format (JSON) in row-major order
http://www.bom.gov.au/fwo/IDV60701/IDV60701.95890.json